Lummen, Belgium
Current Conditions -  °F | °C
As of 6:47 AM on Sunday 23 Nov 2014 (Local Time) from EBDT Reporting Station
Clear Clear  
Wind Chill: 46°   Ceiling: Unl
Heat Index: 48°   Visibility: 5mi
Dew Point: 46°   Wind: 6mph
Humidity: 93%   Direction: 150°SSE
Pressure: 30.03"   Gusts: NA
Location:  50.99°N, 5.19°E
Report Text: EBDT 230547Z AUTO 15005KT 8000 NCD 09/08 Q1017 BLU
Loading
Personal Weather Stations






























Interactive Weather Map New forecast layout! Learn more

10-Day Weather Forecast

Advertisements
Track Severe Weather on mobile